地図

経路データ

SID SEASON NUMBER BASIN SUBBASIN NAME ISO_TIME NATURE LAT LON WMO_WIND WMO_PRES WMO_AGENCY TRACK_TYPE DIST2LAND LANDFALL IFLAG USA_AGENCY USA_ATCF_ID USA_LAT USA_LON USA_RECORD USA_STATUS USA_WIND USA_PRES USA_SSHS USA_R34_NE USA_R34_SE USA_R34_SW USA_R34_NW USA_R50_NE USA_R50_SE USA_R50_SW USA_R50_NW USA_R64_NE USA_R64_SE USA_R64_SW USA_R64_NW USA_POCI USA_ROCI USA_RMW USA_EYE TOKYO_LAT TOKYO_LON TOKYO_GRADE TOKYO_WIND TOKYO_PRES TOKYO_R50_DIR TOKYO_R50_LONG TOKYO_R50_SHORT TOKYO_R30_DIR TOKYO_R30_LONG TOKYO_R30_SHORT TOKYO_LAND CMA_LAT CMA_LON CMA_CAT CMA_WIND CMA_PRES HKO_LAT HKO_LON HKO_CAT HKO_WIND HKO_PRES NEWDELHI_LAT NEWDELHI_LON NEWDELHI_GRADE NEWDELHI_WIND NEWDELHI_PRES NEWDELHI_CI NEWDELHI_DP NEWDELHI_POCI REUNION_LAT REUNION_LON REUNION_TYPE REUNION_WIND REUNION_PRES REUNION_TNUM REUNION_CI REUNION_RMW REUNION_R34_NE REUNION_R34_SE REUNION_R34_SW REUNION_R34_NW REUNION_R50_NE REUNION_R50_SE REUNION_R50_SW REUNION_R50_NW REUNION_R64_NE REUNION_R64_SE REUNION_R64_SW REUNION_R64_NW BOM_LAT BOM_LON BOM_TYPE BOM_WIND BOM_PRES BOM_TNUM BOM_CI BOM_RMW BOM_R34_NE BOM_R34_SE BOM_R34_SW BOM_R34_NW BOM_R50_NE BOM_R50_SE BOM_R50_SW BOM_R50_NW BOM_R64_NE BOM_R64_SE BOM_R64_SW BOM_R64_NW BOM_ROCI BOM_POCI BOM_EYE BOM_POS_METHOD BOM_PRES_METHOD NADI_LAT NADI_LON NADI_CAT NADI_WIND NADI_PRES WELLINGTON_LAT WELLINGTON_LON WELLINGTON_WIND WELLINGTON_PRES DS824_LAT DS824_LON DS824_STAGE DS824_WIND DS824_PRES TD9636_LAT TD9636_LON TD9636_STAGE TD9636_WIND TD9636_PRES TD9635_LAT TD9635_LON TD9635_WIND TD9635_PRES TD9635_ROCI NEUMANN_LAT NEUMANN_LON NEUMANN_CLASS NEUMANN_WIND NEUMANN_PRES MLC_LAT MLC_LON MLC_CLASS MLC_WIND MLC_PRES USA_GUST BOM_GUST BOM_GUST_PER REUNION_GUST REUNION_GUST_PER USA_SEAHGT USA_SEARAD_NE USA_SEARAD_SE USA_SEARAD_SW USA_SEARAD_NW STORM_SPEED STORM_DIR
1994191N08141 1994 45 WP MM ZEKE 1994-07-10 00:00:00 NR 7.90000 140.500 main 1094 1089 O_____________ jtwc_wp WP121994 7.90000 140.500 10 -1 5 281
1994191N08141 1994 45 WP MM ZEKE 1994-07-10 03:00:00 NR 7.95003 140.250 main 1100 1086 P_____________ WP121994 7.95003 140.250 10 -1 5 281
1994191N08141 1994 45 WP MM ZEKE 1994-07-10 06:00:00 NR 8.00000 140.000 main 1086 1076 O_____________ jtwc_wp WP121994 8.00000 140.000 10 -1 5 281
1994191N08141 1994 45 WP MM ZEKE 1994-07-10 09:00:00 NR 8.04998 139.750 main 1076 1074 P_____________ WP121994 8.04998 139.750 10 -1 5 281
1994191N08141 1994 45 WP MM ZEKE 1994-07-10 12:00:00 NR 8.10000 139.500 main 1074 1066 O_____________ jtwc_wp WP121994 8.10000 139.500 10 -1 5 281
1994191N08141 1994 45 WP MM ZEKE 1994-07-10 15:00:00 NR 8.14999 139.250 main 1066 1065 P_____________ WP121994 8.14999 139.250 10 -1 5 281
1994191N08141 1994 45 WP MM ZEKE 1994-07-10 18:00:00 NR 8.20000 139.000 main 1065 1058 O_____________ jtwc_wp WP121994 8.20000 139.000 10 -1 5 281
1994191N08141 1994 45 WP MM ZEKE 1994-07-10 21:00:00 NR 8.24998 138.750 main 1058 1058 P_____________ WP121994 8.24998 138.750 10 -1 5 281
1994191N08141 1994 45 WP MM ZEKE 1994-07-11 00:00:00 NR 8.30000 138.500 main 1058 1052 O_____________ jtwc_wp WP121994 8.30000 138.500 10 -1 5 281
1994191N08141 1994 45 WP MM ZEKE 1994-07-11 03:00:00 NR 8.34999 138.250 main 1052 1052 P_____________ WP121994 8.34999 138.250 12 -1 5 281
1994191N08141 1994 45 WP MM ZEKE 1994-07-11 06:00:00 NR 8.40000 138.000 main 1053 1048 O_____________ jtwc_wp WP121994 8.40000 138.000 15 -1 5 281
1994191N08141 1994 45 WP MM ZEKE 1994-07-11 09:00:00 NR 8.44998 137.750 main 1048 1048 P_____________ WP121994 8.44998 137.750 15 -1 5 281
1994191N08141 1994 45 WP MM ZEKE 1994-07-11 12:00:00 NR 8.50000 137.500 main 1052 1048 O_____________ jtwc_wp WP121994 8.50000 137.500 15 -1 5 281
1994191N08141 1994 45 WP MM ZEKE 1994-07-11 15:00:00 NR 8.54998 137.250 main 1048 1048 P_____________ WP121994 8.54998 137.250 15 -1 5 281
1994191N08141 1994 45 WP MM ZEKE 1994-07-11 18:00:00 NR 8.60000 137.000 main 1053 1050 O_____________ jtwc_wp WP121994 8.60000 137.000 15 -1 5 281
1994191N08141 1994 45 WP MM ZEKE 1994-07-11 21:00:00 NR 8.64998 136.750 main 1050 1050 P_____________ WP121994 8.64998 136.750 15 -1 5 281
1994191N08141 1994 45 WP MM ZEKE 1994-07-12 00:00:00 NR 8.70000 136.500 main 1058 1056 O_____________ jtwc_wp WP121994 8.70000 136.500 15 -1 5 281
1994191N08141 1994 45 WP MM ZEKE 1994-07-12 03:00:00 NR 8.74998 136.250 main 1056 1042 P_____________ WP121994 8.74998 136.250 15 -1 5 281
1994191N08141 1994 45 WP MM ZEKE 1994-07-12 06:00:00 NR 8.80000 136.000 main 1042 1020 O_____________ jtwc_wp WP121994 8.80000 136.000 15 -1 5 281
1994191N08141 1994 45 WP MM ZEKE 1994-07-12 09:00:00 NR 8.84248 135.750 main 1020 989 P_____________ WP121994 8.84248 135.750 15 -1 5 281
1994191N08141 1994 45 WP MM ZEKE 1994-07-12 12:00:00 NR 8.90000 135.500 main 989 968 O_____________ jtwc_wp WP121994 8.90000 135.500 15 -1 5 287
1994191N08141 1994 45 WP MM ZEKE 1994-07-12 15:00:00 NR 8.99248 135.250 main 968 938 P_____________ WP121994 8.99248 135.250 15 -1 5 292
1994191N08141 1994 45 WP MM ZEKE 1994-07-12 18:00:00 NR 9.10000 135.000 main 938 918 O_____________ jtwc_wp WP121994 9.10000 135.000 15 -1 5 292
1994191N08141 1994 45 WP MM ZEKE 1994-07-12 21:00:00 NR 9.19250 134.742 main 907 887 P_____________ WP121994 9.19250 134.742 15 -1 5 292
1994191N08141 1994 45 WP MM ZEKE 1994-07-13 00:00:00 NR 9.30000 134.500 main 887 868 O_____________ jtwc_wp WP121994 9.30000 134.500 15 -1 5 299
1994191N08141 1994 45 WP MM ZEKE 1994-07-13 03:00:00 NR 9.44248 134.292 main 868 852 P_____________ WP121994 9.44248 134.292 15 -1 5 307
1994191N08141 1994 45 WP MM ZEKE 1994-07-13 06:00:00 NR 9.60000 134.100 main 852 833 O_____________ jtwc_wp WP121994 9.60000 134.100 15 -1 5 308
1994191N08141 1994 45 WP MM ZEKE 1994-07-13 09:00:00 NR 9.74999 133.900 main 833 818 P_____________ WP121994 9.74999 133.900 15 -1 5 307
1994191N08141 1994 45 WP MM ZEKE 1994-07-13 12:00:00 NR 9.90000 133.700 main 818 801 O_____________ jtwc_wp WP121994 9.90000 133.700 15 -1 5 306
1994191N08141 1994 45 WP MM ZEKE 1994-07-13 15:00:00 NR 10.0425 133.492 main 801 784 P_____________ WP121994 10.0425 133.492 15 -1 5 307
1994191N08141 1994 45 WP MM ZEKE 1994-07-13 18:00:00 NR 10.2000 133.300 main 784 767 O_____________ jtwc_wp WP121994 10.2000 133.300 15 -1 5 314
1994191N08141 1994 45 WP MM ZEKE 1994-07-13 21:00:00 NR 10.3850 133.135 main 767 759 P_____________ WP121994 10.3850 133.135 15 -1 5 324
1994191N08141 1994 45 WP MM ZEKE 1994-07-14 00:00:00 NR 10.6000 133.000 main 761 753 O_____________ jtwc_wp WP121994 10.6000 133.000 15 -1 5 330
1994191N08141 1994 45 WP MM ZEKE 1994-07-14 03:00:00 NR 10.8275 132.870 main 755 747 P_____________ WP121994 10.8275 132.870 15 -1 5 338
1994191N08141 1994 45 WP MM ZEKE 1994-07-14 06:00:00 NR 11.1000 132.800 main 753 753 O_____________ jtwc_wp WP121994 11.1000 132.800 15 -1 6 355
1994191N08141 1994 45 WP MM ZEKE 1994-07-14 09:00:00 NR 11.4275 132.820 main 763 763 P_____________ WP121994 11.4275 132.820 15 -1 7 8
1994191N08141 1994 45 WP MM ZEKE 1994-07-14 12:00:00 NR 11.8000 132.900 main 779 779 O_____________ jtwc_wp WP121994 11.8000 132.900 15 -1 8 13
1994191N08141 1994 45 WP MM ZEKE 1994-07-14 15:00:00 NR 12.1850 133.000 main 796 796 P_____________ WP121994 12.1850 133.000 15 -1 8 14
1994191N08141 1994 45 WP MM ZEKE 1994-07-14 18:00:00 NR 12.6000 133.100 main 815 815 O_____________ jtwc_wp WP121994 12.6000 133.100 15 -1 9 10
1994191N08141 1994 45 WP MM ZEKE 1994-07-14 21:00:00 NR 13.0500 133.150 main 835 835 P_____________ WP121994 13.0500 133.150 15 -1 9 6
1994191N08141 1994 45 WP MM ZEKE 1994-07-15 00:00:00 NR 13.5000 133.200 main 847 847 O_____________ jtwc_wp WP121994 13.5000 133.200 15 -1 9 9
1994191N08141 1994 45 WP MM ZEKE 1994-07-15 03:00:00 NR 13.9075 133.293 main 866 866 P_____________ WP121994 13.9075 133.293 15 -1 8 14
1994191N08141 1994 45 WP MM ZEKE 1994-07-15 06:00:00 NR 14.3000 133.400 main 887 887 O_____________ jtwc_wp WP121994 14.3000 133.400 15 -1 8 14
1994191N08141 1994 45 WP MM ZEKE 1994-07-15 09:00:00 NR 14.7000 133.500 main 909 909 P_____________ WP121994 14.7000 133.500 15 -1 8 14
1994191N08141 1994 45 WP MM ZEKE 1994-07-15 12:00:00 NR 15.1000 133.600 main 933 933 O_____________ jtwc_wp WP121994 15.1000 133.600 15 -1 8 14
1994191N08141 1994 45 WP MM ZEKE 1994-07-15 15:00:00 NR 15.5000 133.700 main 959 959 P_____________ WP121994 15.5000 133.700 15 -1 8 14
1994191N08141 1994 45 WP MM ZEKE 1994-07-15 18:00:00 NR 15.9000 133.800 main 986 986 O_____________ jtwc_wp WP121994 15.9000 133.800 15 -1 8 13
1994191N08141 1994 45 WP MM ZEKE 1994-07-15 21:00:00 NR 16.3000 133.893 main 1015 1015 P_____________ WP121994 16.3000 133.893 15 -1 8 14
1994191N08141 1994 45 WP MM ZEKE 1994-07-16 00:00:00 NR 16.7000 134.000 main 1044 1044 O_____________ jtwc_wp WP121994 16.7000 134.000 15 -1 8 17
1994191N08141 1994 45 WP MM ZEKE 1994-07-16 03:00:00 NR 17.0925 134.143 main 1075 1075 P_____________ WP121994 17.0925 134.143 17 -1 9 20
1994191N08141 1994 45 WP MM ZEKE 1994-07-16 06:00:00 NR 17.5000 134.300 main 1116 1116 O_____________ jtwc_wp WP121994 17.5000 134.300 20 -1 9 18
1994191N08141 1994 45 WP MM ZEKE 1994-07-16 09:00:00 NR 17.9349 134.435 main 1148 1148 P_____________ WP121994 17.9349 134.435 20 -1 10 18
1994191N08141 1994 45 WP MM ZEKE 1994-07-16 12:00:00 NR 18.4000 134.600 main 1197 1197 O_____________ jtwc_wp WP121994 18.4000 134.600 20 -1 10 22
1994191N08141 1994 45 WP MM ZEKE 1994-07-16 15:00:00 NR 18.8850 134.835 main 1242 1242 P_____________ WP121994 18.8850 134.835 20 -1 11 25
1994191N08141 1994 45 WP MM ZEKE 1994-07-16 18:00:00 NR 19.4000 135.100 main 1295 1295 O_____________ jtwc_wp WP121994 19.4000 135.100 20 -1 12 24
1994191N08141 1994 45 WP MM ZEKE 1994-07-16 21:00:00 NR 19.9424 135.343 main 1322 1270 P_____________ WP121994 19.9424 135.343 20 -1 12 23
1994191N08141 1994 45 WP MM ZEKE 1994-07-17 00:00:00 NR 20.5000 135.600 main 1270 1227 O_____________ jtwc_wp WP121994 20.5000 135.600 20 -1 12 24
1994191N08141 1994 45 WP MM ZEKE 1994-07-17 03:00:00 NR 21.0573 135.870 main 1221 1194 P_____________ WP121994 21.0573 135.870 20 -1 10 24
1994191N08141 1994 45 WP MM ZEKE 1994-07-17 06:00:00 TS 21.4000 136.029 1002 tokyo main 1194 1178 OOOO__________ jtwc_wp WP121994 21.6000 136.200 20 -1 21.0000 136.000 2 1002 0 0 0 21.0000 136.000 1 23 1002 21.4000 135.400 TD 25 1002 7 34
1994191N08141 1994 45 WP MM ZEKE 1994-07-17 09:00:00 TS 21.6681 136.311 main 1178 1168 PPPP__________ WP121994 22.1149 136.613 20 -1 21.2652 136.262 2 1002 0 0 21.2326 136.257 1 26 1001 21.6129 135.812 TD 25 1002 7 47
1994191N08141 1994 45 WP MM ZEKE 1994-07-17 12:00:00 TS 21.9077 136.615 1002 tokyo main 1173 1163 OOOO__________ jtwc_wp WP121994 22.6000 137.100 20 -1 21.5000 136.500 2 1002 0 0 0 21.5000 136.500 1 29 1000 21.8000 136.200 TD 25 1002 7 49
1994191N08141 1994 45 WP MM ZEKE 1994-07-17 15:00:00 TS 22.1378 136.902 main 1168 1152 PPPP__________ WP121994 23.0571 137.606 20 -1 21.7047 136.713 2 1002 0 0 21.8273 136.728 1 29 1000 21.9621 136.563 TD 27 1001 9 48
1994191N08141 1994 45 WP MM ZEKE 1994-07-17 18:00:00 TS 22.4750 137.300 1002 tokyo main 1152 1134 OOOO__________ jtwc_wp WP121994 23.5000 138.200 20 -1 22.0000 137.000 2 1002 0 0 0 22.2000 137.000 1 29 1000 22.2000 137.000 TD 30 1000 11 48
1994191N08141 1994 45 WP MM ZEKE 1994-07-17 21:00:00 TS 22.9053 137.810 main 1140 1128 PPPP__________ WP121994 23.9648 138.905 22 -1 22.5047 137.425 2 1001 0 0 22.5619 137.311 1 29 1000 22.5900 137.598 TD 32 999 14 49
1994191N08141 1994 45 WP MM ZEKE 1994-07-18 00:00:00 TS 23.4000 138.450 35 1000 tokyo main 1134 1108 OOOO__________ jtwc_wp WP121994 24.4000 139.700 25 -1 23.1000 138.000 3 35 1000 0 9 120 120 0 23.0000 137.800 1 29 1000 23.1000 138.300 TS 35 998 16 51
1994191N08141 1994 45 WP MM ZEKE 1994-07-18 03:00:00 TS 23.9416 139.197 main 1110 1080 PPPP__________ WP121994 24.7799 140.543 25 -1 23.6720 138.675 3 35 999 0 9 120 120 23.6000 138.559 1 29 999 23.7145 139.012 TS 37 997 18 54
1994191N08141 1994 45 WP MM ZEKE 1994-07-18 06:00:00 TS 24.4500 140.050 35 998 tokyo main 1077 1072 OOOO__________ jtwc_wp WP121994 25.1000 141.400 25 -1 24.2000 139.500 3 35 998 0 9 120 120 0 24.2000 139.500 1 29 998 24.3000 139.800 TS 40 996 18 61
1994191N08141 1994 45 WP MM ZEKE 1994-07-18 09:00:00 TS 24.8410 140.957 main 1084 1074 PPPP__________ WP121994 25.3648 142.231 25 -1 24.6448 140.455 3 35 996 0 9 120 120 24.6521 140.471 1 29 998 24.7022 140.671 TS 40 996 18 67
1994191N08141 1994 45 WP MM ZEKE 1994-07-18 12:00:00 TS 25.1500 141.900 35 994 tokyo main 1088 1090 OOOO__________ jtwc_wp WP121994 25.6000 143.000 25 -1 25.0000 141.500 3 35 994 0 9 120 120 0 25.0000 141.500 1 29 998 25.0000 141.600 TS 40 996 18 72
1994191N08141 1994 45 WP MM ZEKE 1994-07-18 15:00:00 TS 25.4034 142.837 main 1095 1090 PPPP__________ WP121994 25.8645 143.680 25 -1 25.2497 142.559 3 35 994 0 9 120 120 25.2497 142.559 1 29 998 25.2497 142.551 TS 40 996 17 73
1994191N08141 1994 45 WP MM ZEKE 1994-07-18 18:00:00 TS 25.6500 143.750 35 994 tokyo main 1092 1089 OOOO__________ jtwc_wp WP121994 26.1000 144.300 25 -1 25.5000 143.600 3 35 994 0 9 120 120 0 25.5000 143.600 1 29 998 25.5000 143.500 TS 40 996 17 71
1994191N08141 1994 45 WP MM ZEKE 1994-07-18 21:00:00 TS 25.9730 144.648 main 1089 1089 PPPP__________ WP121994 26.2723 144.923 27 -1 25.8925 144.617 3 35 994 0 9 120 120 25.8925 144.617 1 29 998 25.8348 144.437 TS 37 997 17 67
1994191N08141 1994 45 WP MM ZEKE 1994-07-19 00:00:00 TS 26.3000 145.450 35 994 tokyo main 1098 1092 OOOO__________ jtwc_wp WP121994 26.4000 145.500 30 -1 26.3000 145.500 3 35 994 0 9 120 120 0 26.3000 145.500 1 29 998 26.2000 145.300 TS 35 998 14 65
1994191N08141 1994 45 WP MM ZEKE 1994-07-19 03:00:00 TS 26.5769 146.110 main 1098 1098 PPPP__________ WP121994 26.5147 146.023 30 -1 26.6142 146.176 3 35 994 0 9 120 120 26.6142 146.176 1 29 998 26.5646 146.068 TS 35 998 12 64
1994191N08141 1994 45 WP MM ZEKE 1994-07-19 06:00:00 TS 26.8250 146.650 35 994 tokyo main 1111 1102 OOOO__________ jtwc_wp WP121994 26.6000 146.500 30 -1 26.9000 146.700 3 35 994 0 9 120 120 0 26.9000 146.700 1 29 998 26.9000 146.700 TS 35 998 11 61
1994191N08141 1994 45 WP MM ZEKE 1994-07-19 09:00:00 TS 27.0816 147.141 main 1104 1104 PPPP__________ WP121994 26.6649 146.965 32 -1 27.2372 147.187 3 35 994 0 9 115 115 27.2373 147.202 1 29 998 27.1871 147.210 TS 35 998 9 61
1994191N08141 1994 45 WP MM ZEKE 1994-07-19 12:00:00 TS 27.2750 147.550 35 994 tokyo main 1114 1114 OOOO__________ jtwc_wp WP121994 26.7000 147.400 35 0 27.5000 147.600 3 35 994 0 9 110 110 0 27.5000 147.600 1 29 998 27.4000 147.600 TS 35 998 7 68
1994191N08141 1994 45 WP MM ZEKE 1994-07-19 15:00:00 TS 27.3623 147.905 main 1123 1123 PPPP__________ WP121994 26.6999 147.815 35 0 27.6025 148.003 3 35 995 0 9 105 105 27.6022 147.880 1 29 998 27.5448 147.923 TS 35 998 6 80
1994191N08141 1994 45 WP MM ZEKE 1994-07-19 18:00:00 TS 27.3750 148.200 35 996 tokyo main 1141 1141 OOOO__________ jtwc_wp WP121994 26.7000 148.200 35 0 27.6000 148.300 3 35 996 0 9 100 100 0 27.6000 148.100 1 29 998 27.6000 148.200 TS 35 998 5 89
1994191N08141 1994 45 WP MM ZEKE 1994-07-19 21:00:00 TS 27.3742 148.454 main 1159 1159 PPPP__________ WP121994 26.7500 148.572 35 0 27.5797 148.400 3 35 996 0 9 100 100 27.5799 148.342 1 33 996 27.5874 148.500 TS 35 998 4 96
1994191N08141 1994 45 WP MM ZEKE 1994-07-20 00:00:00 TS 27.3250 148.700 35 996 tokyo main 1181 1181 OOOO__________ jtwc_wp WP121994 26.8000 148.900 35 0 27.5000 148.500 3 35 996 0 9 100 100 0 27.5000 148.600 2 38 995 27.5000 148.800 TS 35 998 5 107
1994191N08141 1994 45 WP MM ZEKE 1994-07-20 03:00:00 TS 27.2274 148.979 main 1208 1208 PPPP__________ WP121994 26.8074 149.173 37 0 27.3724 148.790 3 35 996 0 9 100 100 27.3722 148.862 2 38 995 27.3574 149.093 TS 35 998 6 113
1994191N08141 1994 45 WP MM ZEKE 1994-07-20 06:00:00 TS 27.1000 149.300 35 996 tokyo main 1236 1236 OOOO__________ jtwc_wp WP121994 26.8000 149.400 40 0 27.2000 149.200 3 35 996 0 9 100 100 0 27.2000 149.200 2 38 995 27.2000 149.400 TS 35 998 7 113
1994191N08141 1994 45 WP MM ZEKE 1994-07-20 09:00:00 TS 26.9601 149.680 main 1270 1270 PPPP__________ WP121994 26.7999 149.592 40 0 26.9853 149.700 3 35 996 0 9 100 100 26.9778 149.693 2 38 995 27.0774 149.735 TS 35 998 7 110
1994191N08141 1994 45 WP MM ZEKE 1994-07-20 12:00:00 TS 26.8500 150.075 35 996 tokyo main 1305 1305 OOOO__________ jtwc_wp WP121994 26.8000 149.800 40 0 26.8000 150.200 3 35 996 0 9 100 100 0 26.8000 150.200 2 38 995 27.0000 150.100 TS 35 998 7 103
1994191N08141 1994 45 WP MM ZEKE 1994-07-20 15:00:00 TS 26.8073 150.429 main 1334 1334 PPPP__________ WP121994 26.7926 150.093 40 0 26.6972 150.565 3 35 996 0 9 100 100 26.7547 150.565 2 38 995 26.9849 150.492 TS 35 998 6 92
1994191N08141 1994 45 WP MM ZEKE 1994-07-20 18:00:00 TS 26.8250 150.775 35 996 tokyo main 1361 1361 OOOO__________ jtwc_wp WP121994 26.8000 150.400 40 0 26.7000 150.900 3 35 996 0 9 100 100 0 26.8000 150.900 2 38 995 27.0000 150.900 TS 35 998 6 83
1994191N08141 1994 45 WP MM ZEKE 1994-07-20 21:00:00 TS 26.8869 151.143 main 1374 1374 PPPP__________ WP121994 26.8424 150.650 42 0 26.8275 151.300 3 35 996 0 9 100 100 26.8851 151.307 2 38 995 26.9925 151.315 TS 35 998 7 77
1994191N08141 1994 45 WP MM ZEKE 1994-07-21 00:00:00 TS 26.9750 151.500 35 996 tokyo main 1394 1394 OOOO__________ jtwc_wp WP121994 26.9000 150.900 45 0 27.0000 151.700 3 35 996 0 9 100 100 0 27.0000 151.700 2 38 995 27.0000 151.700 TS 35 998 6 75
1994191N08141 1994 45 WP MM ZEKE 1994-07-21 03:00:00 TS 27.0462 151.826 main 1415 1407 PPPP__________ WP121994 26.9424 151.178 45 0 27.1000 152.080 3 35 996 0 9 100 100 27.1074 152.023 2 38 995 27.0349 152.023 TS 35 998 6 75
1994191N08141 1994 45 WP MM ZEKE 1994-07-21 06:00:00 TS 27.1250 152.125 35 996 tokyo main 1428 1427 OOOO__________ jtwc_wp WP121994 27.0000 151.500 45 0 27.2000 152.400 3 35 996 0 9 100 100 0 27.2000 152.300 2 38 995 27.1000 152.300 TS 35 998 5 72
1994191N08141 1994 45 WP MM ZEKE 1994-07-21 09:00:00 TS 27.2117 152.395 main 1442 1441 PPPP__________ WP121994 27.0849 151.878 47 0 27.3423 152.608 3 37 996 0 9 100 100 27.2349 152.550 2 38 995 27.1848 152.543 TS 35 998 5 68
1994191N08141 1994 45 WP MM ZEKE 1994-07-21 12:00:00 TS 27.3250 152.675 40 996 tokyo main 1455 1448 OOOO__________ jtwc_wp WP121994 27.2000 152.300 50 0 27.5000 152.800 3 40 996 0 9 100 100 0 27.3000 152.800 2 38 995 27.3000 152.800 TS 35 998 6 64
1994191N08141 1994 45 WP MM ZEKE 1994-07-21 15:00:00 TS 27.4743 153.004 main 1462 1462 PPPP__________ WP121994 27.3350 152.750 52 0 27.6498 153.063 3 40 996 0 9 100 100 27.4773 153.070 2 38 995 27.4350 153.135 TS 37 996 7 62
1994191N08141 1994 45 WP MM ZEKE 1994-07-21 18:00:00 TS 27.6500 153.375 40 996 tokyo main 1477 1477 OOOO__________ jtwc_wp WP121994 27.5000 153.200 55 0 27.8000 153.400 3 40 996 0 9 100 100 0 27.7000 153.400 2 38 995 27.6000 153.500 TS 40 994 8 65
1994191N08141 1994 45 WP MM ZEKE 1994-07-21 21:00:00 TS 27.8095 153.803 main 1500 1500 PPPP__________ WP121994 27.6700 153.630 57 0 27.9203 153.865 3 42 994 0 9 105 105 27.8778 153.858 2 38 992 27.7700 153.858 TS 42 992 8 63
1994191N08141 1994 45 WP MM ZEKE 1994-07-22 00:00:00 TS 28.0250 154.200 45 992 tokyo main 1517 1510 OOOO__________ jtwc_wp WP121994 27.9000 154.000 60 0 28.1000 154.300 3 45 992 0 9 110 110 0 28.1000 154.300 2 38 990 28.0000 154.200 TS 45 990 8 49
1994191N08141 1994 45 WP MM ZEKE 1994-07-22 03:00:00 TS 28.3487 154.508 main 1520 1509 PPPP__________ WP121994 28.2274 154.302 62 0 28.4198 154.560 3 45 991 0 9 110 110 28.4274 154.617 2 43 987 28.3201 154.552 TS 47 987 8 32
1994191N08141 1994 45 WP MM ZEKE 1994-07-22 06:00:00 TS 28.7250 154.700 45 990 tokyo main 1510 1494 OOOO__________ jtwc_wp WP121994 28.6000 154.500 65 1 28.8000 154.700 3 45 990 0 9 110 110 0 28.8000 154.800 3 48 985 28.7000 154.800 STS 50 985 8 17
1994191N08141 1994 45 WP MM ZEKE 1994-07-22 09:00:00 TS 29.0818 154.765 main 1494 1476 PPPP__________ WP121994 28.9424 154.588 65 1 29.1499 154.780 3 47 987 0 9 130 130 29.1499 154.838 3 48 985 29.0849 154.853 STS 50 985 7 3
1994191N08141 1994 45 WP MM ZEKE 1994-07-22 12:00:00 TS 29.4500 154.750 50 985 tokyo main 1470 1444 OOOO__________ jtwc_wp WP121994 29.3000 154.600 65 1 29.5000 154.800 4 50 985 0 9 150 150 0 29.5000 154.800 3 48 985 29.5000 154.800 STS 50 985 7 359
1994191N08141 1994 45 WP MM ZEKE 1994-07-22 15:00:00 TS 29.8188 154.743 main 1444 1422 PPPP__________ WP121994 29.6775 154.608 62 0 29.8275 154.808 4 50 985 0 9 150 150 29.8275 154.800 3 48 985 29.9425 154.758 STS 50 985 8 358
1994191N08141 1994 45 WP MM ZEKE 1994-07-22 18:00:00 TS 30.2250 154.725 50 985 tokyo main 1422 1395 OOOO__________ jtwc_wp WP121994 30.1000 154.600 60 0 30.2000 154.800 4 50 985 0 9 150 150 0 30.2000 154.800 3 48 985 30.4000 154.700 STS 50 985 9 359
1994191N08141 1994 45 WP MM ZEKE 1994-07-22 21:00:00 TS 30.6844 154.718 main 1395 1371 PPPP__________ WP121994 30.5775 154.607 60 0 30.6625 154.807 4 50 985 0 9 150 150 30.6625 154.807 3 48 985 30.8350 154.650 STS 50 985 10 0
1994191N08141 1994 45 WP MM ZEKE 1994-07-23 00:00:00 TS 31.2000 154.700 50 985 tokyo main 1371 1348 OOOO__________ jtwc_wp WP121994 31.1000 154.600 60 0 31.2000 154.800 4 50 985 0 9 150 150 0 31.2000 154.800 3 48 985 31.3000 154.600 STS 50 985 11 357
1994191N08141 1994 45 WP MM ZEKE 1994-07-23 03:00:00 TS 31.7506 154.661 main 1344 1314 PPPP__________ WP121994 31.6350 154.565 60 0 31.7700 154.765 4 47 987 0 9 150 150 31.7700 154.765 3 48 985 31.8275 154.550 STS 50 985 12 356
1994191N08141 1994 45 WP MM ZEKE 1994-07-23 06:00:00 TS 32.3500 154.600 45 990 tokyo main 1310 1283 OOOO__________ jtwc_wp WP121994 32.2000 154.500 60 0 32.4000 154.700 3 45 990 0 9 150 150 0 32.4000 154.700 3 48 985 32.4000 154.500 STS 50 985 12 354
1994191N08141 1994 45 WP MM ZEKE 1994-07-23 09:00:00 TS 32.9756 154.518 main 1280 1253 PPPP__________ WP121994 32.7850 154.400 57 0 33.0775 154.608 3 45 990 0 9 150 150 33.0625 154.607 3 48 985 32.9775 154.457 STS 50 985 13 353
1994191N08141 1994 45 WP MM ZEKE 1994-07-23 12:00:00 TS 33.6500 154.425 45 990 tokyo main 1250 1225 OOOO__________ jtwc_wp WP121994 33.4000 154.300 55 0 33.8000 154.500 3 45 990 0 9 150 150 0 33.8000 154.500 3 48 985 33.6000 154.400 STS 50 985 14 354
1994191N08141 1994 45 WP MM ZEKE 1994-07-23 15:00:00 TS 34.3913 154.328 main 1219 1175 PPPP__________ WP121994 34.0350 154.235 55 0 34.5650 154.393 3 45 990 0 9 135 135 34.6800 154.393 3 48 985 34.2850 154.293 STS 50 985 15 354
1994191N08141 1994 45 WP MM ZEKE 1994-07-23 18:00:00 TS 35.1250 154.250 45 990 tokyo main 1175 1117 OOOO__________ jtwc_wp WP121994 34.7000 154.200 55 0 35.3000 154.300 3 45 990 0 9 120 120 0 35.5000 154.300 3 48 985 35.0000 154.200 STS 50 985 14 355
1994191N08141 1994 45 WP MM ZEKE 1994-07-23 21:00:00 TS 35.7556 154.193 main 1108 1066 PPPP__________ WP121994 35.3850 154.170 55 0 35.9149 154.213 3 45 990 0 9 115 115 36.0224 154.213 3 48 985 35.7000 154.177 STS 50 985 13 358
1994191N08141 1994 45 WP MM ZEKE 1994-07-24 00:00:00 TS 36.3750 154.200 45 990 tokyo main 1058 1009 OOOO__________ jtwc_wp WP121994 36.1000 154.200 55 0 36.5000 154.200 3 45 990 0 9 110 110 0 36.5000 154.200 3 48 985 36.4000 154.200 STS 50 985 13 2
1994191N08141 1994 45 WP MM ZEKE 1994-07-24 03:00:00 TS 37.0691 154.251 main 1007 960 PPPP__________ WP121994 36.8497 154.276 52 0 37.1423 154.276 3 42 991 0 9 105 105 37.1773 154.276 3 43 988 37.1071 154.177 STS 50 985 14 8
1994191N08141 1994 45 WP MM ZEKE 1994-07-24 06:00:00 TS 37.7750 154.450 40 992 tokyo main 953 900 OOOO__________ jtwc_wp WP121994 37.6000 154.500 50 0 37.8000 154.500 3 40 992 0 9 100 100 0 37.9000 154.500 2 38 992 37.8000 154.300 STS 50 985 14 17
1994191N08141 1994 45 WP MM ZEKE 1994-07-24 09:00:00 TS 38.4512 154.784 main 893 859 PPPP__________ WP121994 38.3213 154.866 50 0 38.4484 154.803 3 37 993 0 9 100 100 38.5634 154.802 2 38 993 38.4717 154.666 STS 47 987 15 30
1994191N08141 1994 45 WP MM ZEKE 1994-07-24 12:00:00 TS 39.1000 155.407 35 994 tokyo main 859 850 OOOO__________ jtwc_wp WP121994 39.0000 155.500 50 0 39.1000 155.400 3 35 994 0 9 100 100 0 39.2000 155.400 2 38 995 39.1000 155.300 TS 45 990 17 45
1994191N08141 1994 45 WP MM ZEKE 1994-07-24 15:00:00 TS 39.6557 156.363 main 852 852 PPPP__________ WP121994 39.6071 156.424 50 0 39.6515 156.379 3 995 0 9 39.7015 156.379 2 38 995 39.6698 156.179 TS 42 992 21 54
1994191N08141 1994 45 WP MM ZEKE 1994-07-24 18:00:00 TS 40.3231 157.631 996 tokyo main 865 862 OOOO__________ jtwc_wp WP121994 40.2000 157.600 50 0 40.4000 157.700 2 996 0 0 0 40.4000 157.700 2 38 995 40.2000 157.200 TS 40 995 27 51
1994191N08141 1994 45 WP MM ZEKE 1994-07-24 21:00:00 TS 41.3573 159.149 main 869 869 PPP___________ WP121994 40.7809 158.867 47 0 41.6492 159.289 2 997 0 0 41.6417 159.289 2 33 996 TS 32 47
1994191N08141 1994 45 WP MM ZEKE 1994-07-25 00:00:00 ET 42.5000 160.767 998 tokyo main 915 888 OOO___________ jtwc_wp WP121994 41.5000 160.300 45 0 43.0000 161.000 6 998 0 0 0 43.0000 161.000 9 29 998 31 47
1994191N08141 1994 45 WP MM ZEKE 1994-07-25 03:00:00 ET 43.4475 162.229 main 892 864 PPP___________ WP121994 42.4215 161.889 45 0 43.9604 162.399 6 996 0 0 43.9604 162.399 9 29 996 31 47
1994191N08141 1994 45 WP MM ZEKE 1994-07-25 06:00:00 ET 44.5800 163.880 994 tokyo main 862 858 OOO___________ jtwc_wp WP121994 43.6000 163.600 45 0 45.0000 164.000 6 994 0 0 0 45.0000 164.000 9 29 994 39 47
1994191N08141 1994 45 WP MM ZEKE 1994-07-25 09:00:00 ET 46.1192 166.243 main 858 845 PPP___________ WP121994 45.0350 165.362 42 0 46.5188 166.684 6 994 0 0 46.4040 166.244 9 29 994 45 46
1994191N08141 1994 45 WP MM ZEKE 1994-07-25 12:00:00 ET 47.7200 168.640 994 tokyo main 846 801 OOO___________ jtwc_wp WP121994 46.6000 167.200 40 0 48.0000 169.000 6 994 0 0 0 48.0000 169.000 9 29 994 37 37
1994191N08141 1994 45 WP MM ZEKE 1994-07-25 15:00:00 ET 49.1135 169.586 main 794 703 _P____________ WP121994 -1 49.1135 169.586 6 993 0 0 9 23 6
1994191N08141 1994 45 WP MM ZEKE 1994-07-25 18:00:00 ET 50.0000 169.000 992 tokyo main 698 _O____________ -1 50.0000 169.000 6 992 0 0 0 19 337

デジタル台風データ・検索

IBTrACS Databaseについて

本データベースは、米国NOAAが公開する1842年以降の世界の熱帯低気圧のベストトラックデータアーカイブInternational Best Track Archive for Climate Stewardship (IBTrACS)を、ウェブで閲覧しやすい形式に変換したものです。

最終更新日:2021-11-26